createdAt,value
2023-05-15T00:00:32.013Z,6.50
2023-05-15T00:02:03.329Z,6.81
2023-05-15T00:03:34.757Z,7.48
2023-05-15T00:05:06.192Z,7.87
2023-05-15T00:06:37.600Z,8.04
2023-05-15T00:08:08.957Z,6.76
2023-05-15T00:09:40.387Z,8.10
2023-05-15T00:11:11.878Z,9.78
2023-05-15T00:12:43.493Z,6.08
2023-05-15T00:14:14.924Z,7.49
2023-05-15T00:15:51.469Z,7.07
2023-05-15T00:17:22.920Z,7.69
2023-05-15T00:18:54.448Z,8.69
2023-05-15T00:20:25.828Z,8.49
2023-05-15T00:21:57.277Z,6.90
2023-05-15T00:23:28.699Z,7.71
2023-05-15T00:25:00.147Z,7.75
2023-05-15T00:26:31.970Z,8.76
2023-05-15T00:28:03.273Z,6.63
2023-05-15T00:29:34.622Z,6.88
2023-05-15T00:31:05.932Z,6.97
2023-05-15T00:32:37.399Z,8.20
2023-05-15T00:34:08.937Z,8.07
2023-05-15T00:35:40.278Z,6.91
2023-05-15T00:37:11.594Z,6.36
2023-05-15T00:38:43.014Z,7.66
2023-05-15T00:40:14.548Z,7.18
2023-05-15T00:41:45.882Z,7.94
2023-05-15T00:43:17.269Z,7.15
2023-05-15T00:44:48.603Z,8.05
2023-05-15T00:46:19.944Z,9.36
2023-05-15T00:47:51.494Z,8.01
2023-05-15T00:49:22.880Z,9.90
2023-05-15T00:50:54.182Z,7.87
2023-05-15T00:52:25.868Z,8.23
2023-05-15T00:53:57.281Z,8.49
2023-05-15T00:55:28.667Z,8.48
2023-05-15T00:57:00.373Z,7.81
2023-05-15T00:58:31.734Z,8.18
2023-05-15T01:00:03.121Z,8.20
2023-05-15T01:01:34.641Z,8.17
2023-05-15T01:03:06.445Z,7.35
2023-05-15T01:04:38.011Z,8.86
2023-05-15T01:06:09.495Z,10.43
2023-05-15T01:07:40.835Z,8.80
2023-05-15T01:09:12.246Z,8.07
2023-05-15T01:10:43.766Z,8.32
2023-05-15T01:12:15.100Z,7.12
2023-05-15T01:13:46.529Z,6.96
2023-05-15T01:15:17.921Z,7.90
2023-05-15T01:16:49.315Z,8.50
2023-05-15T01:18:21.350Z,9.50
2023-05-15T01:19:52.899Z,6.60
2023-05-15T01:21:24.501Z,9.53
2023-05-15T01:22:55.812Z,8.68
2023-05-15T01:24:27.091Z,7.23
2023-05-15T01:25:58.582Z,7.00
2023-05-15T01:27:29.902Z,8.33
2023-05-15T01:29:01.185Z,9.00
2023-05-15T01:30:32.506Z,7.84
2023-05-15T01:32:04.081Z,7.94
2023-05-15T01:33:35.732Z,7.11
2023-05-15T01:35:07.133Z,7.47
2023-05-15T01:36:39.013Z,8.14
2023-05-15T01:38:10.326Z,8.89
2023-05-15T01:39:41.657Z,7.32
2023-05-15T01:41:12.920Z,9.63
2023-05-15T01:42:44.365Z,6.93
2023-05-15T01:44:16.050Z,7.83
2023-05-15T01:45:47.372Z,8.79
2023-05-15T01:47:23.875Z,8.46
2023-05-15T01:48:55.301Z,9.24
2023-05-15T01:50:26.907Z,8.90
2023-05-15T01:51:58.353Z,8.61
2023-05-15T01:53:29.698Z,8.09
2023-05-15T01:55:01.080Z,11.24
2023-05-15T01:56:32.406Z,9.39
2023-05-15T01:58:03.723Z,9.58
2023-05-15T01:59:35.004Z,9.30
2023-05-15T02:01:06.304Z,11.64
2023-05-15T02:02:37.829Z,8.92
2023-05-15T02:04:09.286Z,9.68
2023-05-15T02:05:40.723Z,12.64
2023-05-15T02:07:11.998Z,9.85
2023-05-15T02:08:43.343Z,12.20
2023-05-15T02:10:19.902Z,10.17
2023-05-15T02:11:51.411Z,8.96
2023-05-15T02:13:22.729Z,9.91
2023-05-15T02:14:54.022Z,12.32
2023-05-15T02:16:30.654Z,10.25
2023-05-15T02:18:03.247Z,10.87
2023-05-15T02:19:34.963Z,12.04
2023-05-15T02:21:06.380Z,11.05
2023-05-15T02:22:37.981Z,12.40
2023-05-15T02:24:09.303Z,11.34
2023-05-15T02:25:40.796Z,12.39
2023-05-15T02:27:12.161Z,9.46
2023-05-15T02:28:43.543Z,10.69
2023-05-15T02:30:14.882Z,13.13
2023-05-15T02:31:46.856Z,10.13
2023-05-15T02:33:18.291Z,10.27
2023-05-15T02:34:50.147Z,10.33
2023-05-15T02:36:21.640Z,10.65
2023-05-15T02:37:52.921Z,10.67
2023-05-15T02:39:24.332Z,11.54
2023-05-15T02:40:55.610Z,11.51
2023-05-15T02:42:27.063Z,10.93
2023-05-15T02:43:58.596Z,12.43
2023-05-15T02:45:29.939Z,14.03
2023-05-15T02:47:01.330Z,12.27
2023-05-15T02:48:32.769Z,13.17
2023-05-15T02:50:04.064Z,13.08
2023-05-15T02:51:35.366Z,11.79
2023-05-15T02:53:06.705Z,14.63
2023-05-15T02:54:38.537Z,16.17
2023-05-15T02:56:09.888Z,12.64
2023-05-15T02:57:41.216Z,12.49
2023-05-15T02:59:12.577Z,14.21
2023-05-15T03:00:43.974Z,17.24
2023-05-15T03:02:16.268Z,14.20
2023-05-15T03:03:49.244Z,16.21
2023-05-15T03:05:20.599Z,16.02
2023-05-15T03:06:52.224Z,15.20
2023-05-15T03:08:23.571Z,16.26
2023-05-15T03:09:54.896Z,16.89
2023-05-15T03:11:26.364Z,16.23
2023-05-15T03:12:57.816Z,16.04
2023-05-15T03:14:29.254Z,17.66
2023-05-15T03:16:00.583Z,18.67
2023-05-15T03:17:31.920Z,17.90
2023-05-15T03:19:03.318Z,19.36
2023-05-15T03:20:35.078Z,19.00
2023-05-15T03:22:06.404Z,22.29
2023-05-15T03:23:37.958Z,21.24
2023-05-15T03:25:09.611Z,22.25
2023-05-15T03:26:40.953Z,24.23
2023-05-15T03:28:12.666Z,21.43
2023-05-15T03:29:43.985Z,22.71
2023-05-15T03:31:15.229Z,25.95
2023-05-15T03:32:46.638Z,27.88
2023-05-15T03:34:18.398Z,31.88
2023-05-15T03:35:49.713Z,30.65
2023-05-15T03:37:21.014Z,35.64
2023-05-15T03:38:52.285Z,38.22
2023-05-15T03:40:23.643Z,45.24
2023-05-15T03:41:55.348Z,46.29
2023-05-15T03:43:26.865Z,48.18
2023-05-15T03:44:58.214Z,48.89
2023-05-15T03:46:29.722Z,51.59
2023-05-15T03:48:01.140Z,51.53
2023-05-15T03:49:32.517Z,57.82
2023-05-15T03:51:03.773Z,62.42
2023-05-15T03:52:35.036Z,65.77
2023-05-15T03:54:06.382Z,64.20
2023-05-15T03:55:37.882Z,64.36
2023-05-15T03:57:09.132Z,64.00
2023-05-15T03:58:40.454Z,66.46
2023-05-15T04:00:11.953Z,67.82
2023-05-15T04:01:59.452Z,65.07
2023-05-15T04:03:35.365Z,65.46
2023-05-15T04:05:06.826Z,67.39
2023-05-15T04:06:38.281Z,72.83
2023-05-15T04:08:09.718Z,72.33
2023-05-15T04:09:40.996Z,72.25
2023-05-15T04:11:12.413Z,73.09
2023-05-15T04:12:43.918Z,69.90
2023-05-15T04:14:15.214Z,70.68
2023-05-15T04:15:46.603Z,69.79
2023-05-15T04:17:18.099Z,69.76
2023-05-15T04:18:49.645Z,69.59
2023-05-15T04:20:21.156Z,71.54
2023-05-15T04:21:52.441Z,70.81
2023-05-15T04:23:24.504Z,73.74
2023-05-15T04:24:55.783Z,70.57
2023-05-15T04:26:27.127Z,75.50
2023-05-15T04:27:58.569Z,75.32
2023-05-15T04:29:30.132Z,76.25
2023-05-15T04:31:01.702Z,80.66
2023-05-15T04:32:33.522Z,85.13
2023-05-15T04:34:05.057Z,81.79
2023-05-15T04:35:36.437Z,81.52
2023-05-15T04:37:12.762Z,82.90
2023-05-15T04:38:44.336Z,78.18
2023-05-15T04:40:15.787Z,83.46
2023-05-15T04:41:48.834Z,84.05
2023-05-15T04:43:20.552Z,86.75
2023-05-15T04:44:52.187Z,91.05
2023-05-15T04:46:23.502Z,92.03
2023-05-15T04:47:54.919Z,90.49
2023-05-15T04:49:26.326Z,93.32
2023-05-15T04:50:57.643Z,93.10
2023-05-15T04:52:28.901Z,96.71
2023-05-15T04:54:00.324Z,98.80
2023-05-15T04:55:33.619Z,103.31
2023-05-15T04:57:05.112Z,98.20
2023-05-15T04:58:36.633Z,98.30
2023-05-15T05:00:07.973Z,98.40
2023-05-15T05:01:39.435Z,99.56
2023-05-15T05:03:10.892Z,97.58
2023-05-15T05:04:42.485Z,99.89
2023-05-15T05:06:13.839Z,103.24
2023-05-15T05:07:45.199Z,102.80
2023-05-15T05:09:16.656Z,105.40
2023-05-15T05:10:48.036Z,102.10
2023-05-15T05:12:25.930Z,103.20
2023-05-15T05:13:58.831Z,102.45
2023-05-15T05:15:41.463Z,103.68
2023-05-15T05:17:23.181Z,106.88
2023-05-15T05:18:54.741Z,102.96
2023-05-15T05:20:36.523Z,99.71
2023-05-15T05:22:07.992Z,103.84
2023-05-15T05:23:39.310Z,102.28
2023-05-15T05:25:10.564Z,100.28
2023-05-15T05:26:41.950Z,97.15
2023-05-15T05:28:13.522Z,96.10
2023-05-15T05:29:45.215Z,89.83
2023-05-15T05:31:16.966Z,92.54
2023-05-15T05:32:48.371Z,91.99
2023-05-15T05:34:19.690Z,93.77
2023-05-15T05:35:50.980Z,91.39
2023-05-15T05:37:22.300Z,91.64
2023-05-15T05:38:53.587Z,94.02
2023-05-15T05:40:24.924Z,95.18
2023-05-15T05:41:56.360Z,96.66
2023-05-15T05:43:27.662Z,93.52
2023-05-15T05:45:08.470Z,94.79
2023-05-15T05:46:39.979Z,97.69
2023-05-15T05:48:15.784Z,99.09
2023-05-15T05:49:48.336Z,98.60
2023-05-15T05:51:20.114Z,97.48
2023-05-15T05:52:51.879Z,93.59
2023-05-15T05:54:23.189Z,93.87
2023-05-15T05:55:54.475Z,90.24
2023-05-15T05:57:25.743Z,90.30
2023-05-15T05:58:57.287Z,84.51
2023-05-15T06:00:28.865Z,85.29
2023-05-15T06:02:00.478Z,83.31
2023-05-15T06:03:31.948Z,79.86
2023-05-15T06:05:03.515Z,75.60
2023-05-15T06:06:34.932Z,76.39
2023-05-15T06:08:06.378Z,77.08
2023-05-15T06:09:37.832Z,75.81
2023-05-15T06:11:09.224Z,71.26
2023-05-15T06:12:40.506Z,73.20
2023-05-15T06:14:12.103Z,72.72
2023-05-15T06:15:44.196Z,71.25
2023-05-15T06:17:15.666Z,74.34
2023-05-15T06:18:47.356Z,77.08
2023-05-15T06:20:18.783Z,75.47
2023-05-15T06:21:50.126Z,82.67
2023-05-15T06:23:24.272Z,78.44
2023-05-15T06:24:55.986Z,74.07
2023-05-15T06:26:27.465Z,73.51
2023-05-15T06:27:58.842Z,71.40
2023-05-15T06:29:30.166Z,72.34
2023-05-15T06:31:01.695Z,71.32
2023-05-15T06:32:34.487Z,68.36
2023-05-15T06:34:06.225Z,65.36
2023-05-15T06:35:37.622Z,65.61
2023-05-15T06:37:09.028Z,62.48
2023-05-15T06:38:40.642Z,60.39
2023-05-15T06:40:11.937Z,60.52
2023-05-15T06:41:43.233Z,61.93
2023-05-15T06:43:14.695Z,61.93
2023-05-15T06:44:46.030Z,60.42
2023-05-15T06:46:17.580Z,59.05
2023-05-15T06:47:48.990Z,57.62
2023-05-15T06:49:20.581Z,60.24
2023-05-15T06:50:51.978Z,59.38
2023-05-15T06:52:23.262Z,57.25
2023-05-15T06:53:54.703Z,62.69
2023-05-15T06:55:27.307Z,59.30
2023-05-15T06:56:58.768Z,59.44
2023-05-15T06:58:30.362Z,54.76
2023-05-15T07:00:01.876Z,56.37
2023-05-15T07:01:52.452Z,54.90
2023-05-15T07:03:23.828Z,56.70
2023-05-15T07:04:55.449Z,57.94
2023-05-15T07:06:26.858Z,56.02
2023-05-15T07:07:58.379Z,58.48
2023-05-15T07:09:29.690Z,60.69
2023-05-15T07:11:01.534Z,63.92
2023-05-15T07:12:32.948Z,62.14
2023-05-15T07:14:04.662Z,64.45
2023-05-15T07:15:35.971Z,63.81
2023-05-15T07:17:07.330Z,63.72
2023-05-15T07:18:43.804Z,64.79
2023-05-15T07:20:15.267Z,70.00
2023-05-15T07:21:46.736Z,71.62
2023-05-15T07:23:18.147Z,69.00
2023-05-15T07:24:49.486Z,73.77
2023-05-15T07:26:32.798Z,70.24
2023-05-15T07:28:10.044Z,75.57
2023-05-15T07:29:41.483Z,75.43
2023-05-15T07:31:12.940Z,77.47
2023-05-15T07:32:44.606Z,81.38
2023-05-15T07:34:16.305Z,86.51
2023-05-15T07:35:47.635Z,88.71
2023-05-15T07:37:19.060Z,86.92
2023-05-15T07:38:50.490Z,83.39
2023-05-15T07:40:21.917Z,87.36
2023-05-15T07:41:53.217Z,90.91
2023-05-15T07:43:24.541Z,92.08
2023-05-15T07:44:55.946Z,92.91
2023-05-15T07:46:27.399Z,97.09
2023-05-15T07:47:58.874Z,102.74
2023-05-15T07:49:30.284Z,105.46
2023-05-15T07:51:01.881Z,110.89
2023-05-15T07:52:33.500Z,104.84
2023-05-15T07:54:04.823Z,96.10
2023-05-15T07:55:36.474Z,94.27
2023-05-15T07:57:07.980Z,91.20
2023-05-15T07:58:39.305Z,86.68
2023-05-15T08:00:10.821Z,86.79
2023-05-15T08:01:42.180Z,83.00
2023-05-15T08:03:13.694Z,75.09
2023-05-15T08:04:45.241Z,77.73
2023-05-15T08:06:16.581Z,75.23
2023-05-15T08:07:47.915Z,75.54
2023-05-15T08:09:19.453Z,75.94
2023-05-15T08:10:50.879Z,74.24
2023-05-15T08:12:22.316Z,71.04
2023-05-15T08:13:53.846Z,75.35
2023-05-15T08:15:25.674Z,74.81
2023-05-15T08:16:57.253Z,74.08
2023-05-15T08:18:28.691Z,71.50
2023-05-15T08:20:00.242Z,70.70
2023-05-15T08:21:31.580Z,67.65
2023-05-15T08:23:03.191Z,64.48
2023-05-15T08:24:34.736Z,63.09
2023-05-15T08:26:06.113Z,63.54
2023-05-15T08:27:37.530Z,64.26
2023-05-15T08:29:08.852Z,67.18
2023-05-15T08:30:40.300Z,62.20
2023-05-15T08:32:12.031Z,61.44
2023-05-15T08:33:43.374Z,60.67
2023-05-15T08:35:14.734Z,58.85
2023-05-15T08:36:46.152Z,59.18
2023-05-15T08:38:17.881Z,58.76
2023-05-15T08:39:49.217Z,58.25
2023-05-15T08:41:32.612Z,56.92
2023-05-15T08:43:10.525Z,52.27
2023-05-15T08:44:42.156Z,52.75
2023-05-15T08:46:13.602Z,51.55
2023-05-15T08:47:45.062Z,51.96
2023-05-15T08:49:16.577Z,48.32
2023-05-15T08:50:48.117Z,49.63
2023-05-15T08:52:19.652Z,52.35
2023-05-15T08:53:51.169Z,48.66
2023-05-15T08:55:22.517Z,45.13
2023-05-15T08:56:54.121Z,44.51
2023-05-15T08:58:25.550Z,40.44
2023-05-15T08:59:56.936Z,38.89
2023-05-15T09:01:28.455Z,41.89
2023-05-15T09:03:00.040Z,38.22
2023-05-15T09:04:31.449Z,39.76
2023-05-15T09:06:02.760Z,37.11
2023-05-15T09:07:34.215Z,37.81
2023-05-15T09:09:05.692Z,37.80
2023-05-15T09:10:37.021Z,38.20
2023-05-15T09:12:08.521Z,38.23
2023-05-15T09:13:39.881Z,35.40
2023-05-15T09:15:11.180Z,37.43
2023-05-15T09:16:42.760Z,35.75
2023-05-15T09:18:14.159Z,33.31
2023-05-15T09:19:45.625Z,33.98
2023-05-15T09:21:17.059Z,34.36
2023-05-15T09:22:48.532Z,32.12
2023-05-15T09:24:19.993Z,30.52
2023-05-15T09:25:51.315Z,32.43
2023-05-15T09:27:23.149Z,30.19
2023-05-15T09:28:54.589Z,29.53
2023-05-15T09:30:25.940Z,27.22
2023-05-15T09:31:57.291Z,25.81
2023-05-15T09:33:28.707Z,25.71
2023-05-15T09:35:00.193Z,24.18
2023-05-15T09:36:31.601Z,25.72
2023-05-15T09:38:02.917Z,22.82
2023-05-15T09:39:34.377Z,26.01
2023-05-15T09:41:05.810Z,23.27
2023-05-15T09:42:37.152Z,20.96
2023-05-15T09:44:08.587Z,21.68
2023-05-15T09:45:39.994Z,23.94
2023-05-15T09:47:11.758Z,21.85
2023-05-15T09:48:43.332Z,22.37
2023-05-15T09:50:14.871Z,21.18
2023-05-15T09:51:46.232Z,22.49
2023-05-15T09:53:21.332Z,20.90
2023-05-15T09:54:53.407Z,19.69
2023-05-15T09:56:24.863Z,18.10
2023-05-15T09:57:56.382Z,21.91
2023-05-15T09:59:27.921Z,22.17
2023-05-15T10:00:59.307Z,20.43
2023-05-15T10:02:30.761Z,22.56
2023-05-15T10:04:02.444Z,21.36
2023-05-15T10:05:43.151Z,21.46
2023-05-15T10:07:15.475Z,19.47
2023-05-15T10:08:46.932Z,20.18
2023-05-15T10:10:18.323Z,20.04
2023-05-15T10:11:49.883Z,20.64
2023-05-15T10:13:21.729Z,21.99
2023-05-15T10:14:53.166Z,20.06
2023-05-15T10:16:24.846Z,19.67
2023-05-15T10:17:56.481Z,20.85
2023-05-15T10:19:28.536Z,21.29
2023-05-15T10:21:00.051Z,21.12
2023-05-15T10:22:31.459Z,20.68
2023-05-15T10:24:02.904Z,21.17
2023-05-15T10:25:34.482Z,20.45
2023-05-15T10:27:05.866Z,20.78
2023-05-15T10:28:44.881Z,21.19
2023-05-15T10:30:16.634Z,22.07
2023-05-15T10:31:48.188Z,21.35
2023-05-15T10:33:24.624Z,23.83
2023-05-15T10:34:55.985Z,22.74
2023-05-15T10:36:27.416Z,20.61
2023-05-15T10:37:58.815Z,21.47
2023-05-15T10:39:30.195Z,20.75
2023-05-15T10:41:15.824Z,20.66
2023-05-15T10:42:48.853Z,20.36
2023-05-15T10:44:20.780Z,20.76
2023-05-15T10:45:52.183Z,21.06
2023-05-15T10:47:23.656Z,21.29
2023-05-15T10:49:00.225Z,21.05
2023-05-15T10:50:31.654Z,21.55
2023-05-15T10:52:03.127Z,22.76
2023-05-15T10:53:34.589Z,21.82
2023-05-15T10:55:06.074Z,18.83
2023-05-15T10:56:38.873Z,19.22
2023-05-15T10:58:10.411Z,18.98
2023-05-15T10:59:41.885Z,18.82
2023-05-15T11:01:13.343Z,18.11
2023-05-15T11:02:44.945Z,16.27
2023-05-15T11:04:16.596Z,15.93
2023-05-15T11:05:48.287Z,15.98
2023-05-15T11:07:19.707Z,18.79
2023-05-15T11:08:51.247Z,18.38
2023-05-15T11:10:22.792Z,16.24
2023-05-15T11:11:54.526Z,14.70
2023-05-15T11:13:26.029Z,16.75
2023-05-15T11:14:57.523Z,14.76
2023-05-15T11:16:29.057Z,17.20
2023-05-15T11:18:00.666Z,16.33
2023-05-15T11:19:32.148Z,15.44
2023-05-15T11:21:03.712Z,16.90
2023-05-15T11:22:35.145Z,14.84
2023-05-15T11:24:06.782Z,13.72
2023-05-15T11:25:38.245Z,15.33
2023-05-15T11:27:09.673Z,17.71
2023-05-15T11:28:41.239Z,15.41
2023-05-15T11:30:12.674Z,18.48
2023-05-15T11:31:44.149Z,13.42
2023-05-15T11:33:15.637Z,15.33
2023-05-15T11:34:47.223Z,14.97
2023-05-15T11:36:18.838Z,16.74
2023-05-15T11:37:50.339Z,14.88
2023-05-15T11:39:22.247Z,15.66
2023-05-15T11:40:53.726Z,15.19
2023-05-15T11:42:26.179Z,14.14
2023-05-15T11:43:57.653Z,15.94
2023-05-15T11:45:29.221Z,16.36
2023-05-15T11:47:01.018Z,13.33
2023-05-15T11:48:32.797Z,12.68
2023-05-15T11:50:04.285Z,11.72
2023-05-15T11:51:36.126Z,11.99
2023-05-15T11:53:07.702Z,11.85
2023-05-15T11:54:39.246Z,9.44
2023-05-15T11:56:10.910Z,9.11
2023-05-15T11:57:42.476Z,10.30
2023-05-15T11:59:14.046Z,10.71
2023-05-15T12:00:45.640Z,10.08
2023-05-15T12:02:17.177Z,10.19
2023-05-15T12:03:48.853Z,7.92
2023-05-15T12:05:20.473Z,8.93
2023-05-15T12:06:52.080Z,9.75
2023-05-15T12:08:23.588Z,10.55
2023-05-15T12:09:55.120Z,10.07
2023-05-15T12:11:26.610Z,9.82
2023-05-15T12:12:58.131Z,10.51
2023-05-15T12:14:29.586Z,10.21
2023-05-15T12:16:01.173Z,10.22
2023-05-15T12:17:32.859Z,9.81
2023-05-15T12:19:04.492Z,8.37
2023-05-15T12:20:36.258Z,8.48
2023-05-15T12:22:07.778Z,11.23
2023-05-15T12:23:39.352Z,7.40
2023-05-15T12:25:10.880Z,9.39
2023-05-15T12:26:42.666Z,9.34
2023-05-15T12:28:14.195Z,8.36
2023-05-15T12:29:45.831Z,9.47
2023-05-15T12:31:17.383Z,10.10
2023-05-15T12:32:49.211Z,12.44
2023-05-15T12:34:20.859Z,11.53
2023-05-15T12:35:52.327Z,10.71
2023-05-15T12:37:23.835Z,10.52
2023-05-15T12:38:55.358Z,9.15
2023-05-15T12:40:27.410Z,9.52
2023-05-15T12:41:59.033Z,12.26
2023-05-15T12:43:30.504Z,9.97
2023-05-15T12:45:02.090Z,9.59
2023-05-15T12:46:33.676Z,8.98
2023-05-15T12:48:06.474Z,8.31
2023-05-15T12:49:38.021Z,8.59
2023-05-15T12:51:09.577Z,8.97
2023-05-15T12:52:41.450Z,8.32
2023-05-15T12:54:12.970Z,9.22
2023-05-15T12:55:44.526Z,8.32
2023-05-15T12:57:16.048Z,9.62
2023-05-15T12:58:47.761Z,7.40
2023-05-15T13:00:19.279Z,8.94
2023-05-15T13:01:50.952Z,8.02
2023-05-15T13:03:22.581Z,8.86
2023-05-15T13:04:54.140Z,7.45
2023-05-15T13:06:34.622Z,8.38
2023-05-15T13:08:13.727Z,6.44
2023-05-15T13:09:45.309Z,7.50
2023-05-15T13:11:16.870Z,7.43
2023-05-15T13:12:48.585Z,7.39
2023-05-15T13:14:20.115Z,7.04
2023-05-15T13:15:51.830Z,8.03
2023-05-15T13:17:23.526Z,7.39
2023-05-15T13:18:55.114Z,7.12
2023-05-15T13:20:26.997Z,7.02
2023-05-15T13:21:58.708Z,6.22
2023-05-15T13:23:42.425Z,7.05
2023-05-15T13:25:13.992Z,8.25
2023-05-15T13:26:45.637Z,8.58
2023-05-15T13:28:17.156Z,7.97
2023-05-15T13:29:48.655Z,7.70
2023-05-15T13:31:20.229Z,6.11
2023-05-15T13:32:54.717Z,6.08
2023-05-15T13:34:27.472Z,5.69
2023-05-15T13:35:59.062Z,6.18
2023-05-15T13:37:30.649Z,6.08
2023-05-15T13:39:02.266Z,7.25
2023-05-15T13:40:33.816Z,4.40
2023-05-15T13:42:05.367Z,5.43
2023-05-15T13:43:36.935Z,4.45
2023-05-15T13:45:08.658Z,6.82
2023-05-15T13:46:40.405Z,7.23
2023-05-15T13:48:12.131Z,7.47
2023-05-15T13:49:44.359Z,6.72
2023-05-15T13:51:20.932Z,6.48
2023-05-15T13:52:52.497Z,6.12
2023-05-15T13:54:24.054Z,6.12
2023-05-15T13:55:55.759Z,8.15
2023-05-15T13:57:27.535Z,7.19
2023-05-15T13:58:59.084Z,6.46
2023-05-15T14:00:30.655Z,6.12
2023-05-15T14:02:02.187Z,6.68
2023-05-15T14:03:33.799Z,6.11
2023-05-15T14:05:05.528Z,8.21
2023-05-15T14:06:37.210Z,8.06
2023-05-15T14:08:09.020Z,7.98
2023-05-15T14:09:40.634Z,7.29
2023-05-15T14:11:12.223Z,10.10
2023-05-15T14:12:43.766Z,8.08
2023-05-15T14:14:15.398Z,6.54
2023-05-15T14:15:46.978Z,7.05
2023-05-15T14:17:18.629Z,7.68
2023-05-15T14:18:55.564Z,8.27
2023-05-15T14:20:27.450Z,8.54
2023-05-15T14:21:59.166Z,8.24
2023-05-15T14:23:30.765Z,6.99
2023-05-15T14:25:02.647Z,8.58
2023-05-15T14:26:34.230Z,8.68
2023-05-15T14:28:05.799Z,9.56
2023-05-15T14:29:38.242Z,7.59
2023-05-15T14:31:09.965Z,8.64
2023-05-15T14:32:42.622Z,8.56
2023-05-15T14:34:14.174Z,9.39
2023-05-15T14:35:45.861Z,8.94
2023-05-15T14:37:17.367Z,9.18
2023-05-15T14:38:48.888Z,9.05
2023-05-15T14:40:20.506Z,7.61
2023-05-15T14:41:52.355Z,7.99
2023-05-15T14:43:23.873Z,7.37
2023-05-15T14:44:55.646Z,7.75
2023-05-15T14:46:27.252Z,8.30
2023-05-15T14:47:58.952Z,7.38
2023-05-15T14:49:30.493Z,8.20
2023-05-15T14:51:01.938Z,7.10
2023-05-15T14:52:33.456Z,7.82
2023-05-15T14:54:05.074Z,7.67
2023-05-15T14:55:36.705Z,7.67
2023-05-15T14:57:08.183Z,7.63
2023-05-15T14:58:39.730Z,10.27
2023-05-15T15:00:11.219Z,11.37
2023-05-15T15:01:42.842Z,8.93
2023-05-15T15:03:14.705Z,10.50
2023-05-15T15:04:46.243Z,11.89
2023-05-15T15:06:17.737Z,13.73
2023-05-15T15:07:49.232Z,13.11
2023-05-15T15:09:21.449Z,9.69
2023-05-15T15:10:53.493Z,9.39
2023-05-15T15:12:24.992Z,8.69
2023-05-15T15:13:56.724Z,7.55
2023-05-15T15:15:28.188Z,7.49
2023-05-15T15:16:59.687Z,7.74
2023-05-15T15:18:31.206Z,8.24
2023-05-15T15:20:02.791Z,8.14
2023-05-15T15:21:34.293Z,7.29
2023-05-15T15:23:05.753Z,6.63
2023-05-15T15:24:37.227Z,6.64
2023-05-15T15:26:08.766Z,6.24
2023-05-15T15:27:40.255Z,5.75
2023-05-15T15:29:11.913Z,8.27
2023-05-15T15:30:43.463Z,7.08
2023-05-15T15:32:15.108Z,7.20
2023-05-15T15:33:46.740Z,4.78
2023-05-15T15:35:18.270Z,5.94
2023-05-15T15:36:49.856Z,5.04
2023-05-15T15:38:21.346Z,5.60
2023-05-15T15:39:52.820Z,6.61
2023-05-15T15:41:24.313Z,8.22
2023-05-15T15:42:55.897Z,7.33
2023-05-15T15:44:27.564Z,7.23
2023-05-15T15:45:59.393Z,8.18
2023-05-15T15:47:30.948Z,8.03
2023-05-15T15:49:03.904Z,9.77
2023-05-15T15:50:36.788Z,10.82
2023-05-15T15:52:08.349Z,9.18
2023-05-15T15:53:39.832Z,10.89
2023-05-15T15:55:11.439Z,8.59
2023-05-15T15:56:43.217Z,9.32
2023-05-15T15:58:14.929Z,9.99
2023-05-15T15:59:46.586Z,10.90
2023-05-15T16:01:18.138Z,9.35
2023-05-15T16:02:49.685Z,10.26
2023-05-15T16:04:21.480Z,10.64
2023-05-15T16:05:52.958Z,9.21
2023-05-15T16:07:24.887Z,8.69
2023-05-15T16:08:56.369Z,10.22
2023-05-15T16:10:27.912Z,9.85
2023-05-15T16:11:59.632Z,11.87
2023-05-15T16:13:31.083Z,8.93
2023-05-15T16:15:17.493Z,11.18
2023-05-15T16:16:53.244Z,9.19
2023-05-15T16:18:24.927Z,7.33
2023-05-15T16:19:57.050Z,8.98
2023-05-15T16:21:28.883Z,8.85
2023-05-15T16:23:00.349Z,8.67
2023-05-15T16:24:32.025Z,8.75
2023-05-15T16:26:03.432Z,8.66
2023-05-15T16:27:34.919Z,10.88
2023-05-15T16:29:06.485Z,9.17
2023-05-15T16:30:48.271Z,9.02
2023-05-15T16:32:20.723Z,9.51
2023-05-15T16:33:52.353Z,9.44
2023-05-15T16:35:23.813Z,10.28
2023-05-15T16:36:55.416Z,9.88
2023-05-15T16:38:26.803Z,10.08
2023-05-15T16:40:19.486Z,9.09
2023-05-15T16:41:51.440Z,9.63
2023-05-15T16:43:23.061Z,8.91
2023-05-15T16:44:54.663Z,9.15
2023-05-15T16:46:27.257Z,7.96
2023-05-15T16:48:14.480Z,8.51
2023-05-15T16:49:48.306Z,8.35
2023-05-15T16:51:30.898Z,6.63
2023-05-15T16:53:07.696Z,5.72
2023-05-15T16:54:39.540Z,7.11
2023-05-15T16:56:42.289Z,7.81
2023-05-15T16:58:23.951Z,6.01
2023-05-15T16:59:55.356Z,6.81
2023-05-15T17:01:42.512Z,8.20
2023-05-15T17:03:30.030Z,7.89
2023-05-15T17:05:03.838Z,8.12
2023-05-15T17:06:56.580Z,6.91
2023-05-15T17:08:38.673Z,6.67
2023-05-15T17:10:31.047Z,7.26
2023-05-15T17:12:07.875Z,6.88
2023-05-15T17:13:56.966Z,6.39
2023-05-15T17:15:28.662Z,5.28
2023-05-15T17:17:01.188Z,6.95
2023-05-15T17:18:33.693Z,6.80
2023-05-15T17:20:12.622Z,6.42
2023-05-15T17:24:07.822Z,6.12
2023-05-15T17:25:40.792Z,4.92
2023-05-15T17:27:23.432Z,6.60
2023-05-15T17:28:55.730Z,7.25
2023-05-15T17:30:37.102Z,8.72
2023-05-15T17:32:09.034Z,8.84
2023-05-15T17:33:40.777Z,9.57
2023-05-15T17:35:12.283Z,9.00
2023-05-15T17:36:44.258Z,10.53
2023-05-15T17:38:25.537Z,8.82
2023-05-15T17:39:58.351Z,10.07
2023-05-15T17:41:30.967Z,10.05
2023-05-15T17:43:02.384Z,10.27
2023-05-15T17:44:34.499Z,9.67
2023-05-15T17:46:06.119Z,9.74
2023-05-15T17:47:37.671Z,11.15
2023-05-15T17:49:09.551Z,10.95
2023-05-15T17:50:41.701Z,10.80
2023-05-15T17:52:13.663Z,9.39
2023-05-15T17:53:46.374Z,10.77
2023-05-15T17:55:18.629Z,11.11
2023-05-15T17:56:50.299Z,10.38
2023-05-15T17:58:37.464Z,9.75
2023-05-15T18:00:09.336Z,9.07
2023-05-15T18:01:41.234Z,10.91
2023-05-15T18:03:12.737Z,10.46
2023-05-15T18:04:44.538Z,9.32
2023-05-15T18:06:16.673Z,10.05
2023-05-15T18:07:48.943Z,10.02
2023-05-15T18:09:23.140Z,10.41
2023-05-15T18:10:55.779Z,10.18
2023-05-15T18:12:27.315Z,8.95
2023-05-15T18:13:59.588Z,10.43
2023-05-15T18:15:30.980Z,9.66
2023-05-15T18:17:02.335Z,9.07
2023-05-15T18:18:34.074Z,9.35
2023-05-15T18:20:05.985Z,10.13
2023-05-15T18:21:38.261Z,10.02
2023-05-15T18:23:12.057Z,9.52
2023-05-15T18:24:43.485Z,10.33
2023-05-15T18:26:14.992Z,10.99
2023-05-15T18:27:46.355Z,10.00
2023-05-15T18:29:18.099Z,11.13
2023-05-15T18:30:49.833Z,10.27
2023-05-15T18:32:21.200Z,10.68
2023-05-15T18:33:52.620Z,10.06
2023-05-15T18:35:24.371Z,9.43
2023-05-15T18:37:01.248Z,10.00
2023-05-15T18:38:37.871Z,10.37
2023-05-15T18:40:09.178Z,11.06
2023-05-15T18:41:50.839Z,10.75
2023-05-15T18:43:22.359Z,10.38
2023-05-15T18:44:53.991Z,10.68
2023-05-15T18:46:26.849Z,10.62
2023-05-15T18:48:03.713Z,11.73
2023-05-15T18:49:46.444Z,13.13
2023-05-15T18:51:27.895Z,11.45
2023-05-15T18:52:59.258Z,11.67
2023-05-15T18:54:31.034Z,11.84
2023-05-15T18:56:02.632Z,11.79
2023-05-15T18:57:34.002Z,11.84
2023-05-15T18:59:05.358Z,15.26
2023-05-15T19:00:39.200Z,14.41
2023-05-15T19:02:10.998Z,13.11
2023-05-15T19:03:42.972Z,14.13
2023-05-15T19:05:14.464Z,14.13
2023-05-15T19:06:45.798Z,14.03
2023-05-15T19:08:17.127Z,12.85
2023-05-15T19:09:48.971Z,14.84
2023-05-15T19:11:36.844Z,14.76
2023-05-15T19:13:08.775Z,13.71
2023-05-15T19:14:45.263Z,15.33
2023-05-15T19:16:16.888Z,15.22
2023-05-15T19:17:48.681Z,16.04
2023-05-15T19:19:20.482Z,15.58
2023-05-15T19:20:53.231Z,16.93
2023-05-15T19:22:25.537Z,15.41
2023-05-15T19:23:57.151Z,15.57
2023-05-15T19:25:28.911Z,15.68
2023-05-15T19:27:00.408Z,16.18
2023-05-15T19:28:31.845Z,15.69
2023-05-15T19:30:32.312Z,17.15
2023-05-15T19:32:07.883Z,15.62
2023-05-15T19:33:39.410Z,18.28
2023-05-15T19:35:10.870Z,16.55
2023-05-15T19:36:42.440Z,16.61
2023-05-15T19:38:13.893Z,15.36
2023-05-15T19:39:57.748Z,14.56
2023-05-15T19:41:44.322Z,17.01
2023-05-15T19:43:16.885Z,15.35
2023-05-15T19:44:54.786Z,15.81
2023-05-15T19:46:26.315Z,15.05
2023-05-15T19:47:57.925Z,16.26
2023-05-15T19:49:49.501Z,16.62
2023-05-15T19:51:33.717Z,16.29
2023-05-15T19:53:05.614Z,16.21
2023-05-15T19:55:00.952Z,16.14
2023-05-15T19:56:58.366Z,15.58
2023-05-15T19:58:29.959Z,17.56
2023-05-15T20:00:22.578Z,18.38
2023-05-15T20:01:55.913Z,15.74
2023-05-15T20:03:44.241Z,16.21
2023-05-15T20:05:15.931Z,16.56
2023-05-15T20:06:59.637Z,16.21
2023-05-15T20:08:31.148Z,16.55